DAUH

Details ICAO DAUH (HME)
Name OUED IRARA
Region Algeria
Timezone Africa/Algiers (UTC+1.0)
Plans Departing 54
Arriving 50
Stats Elevation 463 ft / 141 m (AMSL)
Location 31.672900° 6.140458°
Runways 1
Magnetic Variation 1.459° E
Sunrise 2018-05-23 04:35:47 UTC / 2018-05-23 05:35:47 Local
Sunset 2018-05-23 18:31:27 UTC / 2018-05-23 19:31:27 Local
Advertisement - Login to hide

Runways

ID Width Length Bearing (true) Bearing (mag) Surface Threshold Offset Overrun Length
18 148 ft / 45 m 9,952 ft / 3,034 m 184.21° 182.75° Asphalt 0 ft / 0 m 328 ft / 100 m
36 148 ft / 45 m 9,952 ft / 3,034 m 4.20° 2.74° Asphalt 0 ft / 0 m 328 ft / 100 m

Map

Weather


0- 5 10 15 20 25 30 35+ Temperature / ° C

Clouds and Precipitation
Forecast for 2018-05-23 00:00 UTC. Updated 3 hours ago

Ground ~20,000 ft ~40,000 ft Winds

METAR

DAUH 230130Z 04007KT CAVOK 24/10 Q1015

TAF

TAF DAUH 222300Z 2300/2324 02010KT CAVOK BECMG 2306/2309 10014KT PROB30 TEMPO 2309/2314 10015G25KT 5000 DRSA

Frequencies

Tower 118.10 MHz HASSI MESSAOUD TWR
Approach 120.00 MHz HASSI MESSAOUD APP
Tower 119.70 MHz HASSI MESSAOUD TWR
Warning: Do not use this data for real-world aviation or navigation. No guarantee of current accuracy is given.